Auburn, New Jersey
Current Conditions -  °F | °C
As of 2:54 AM on Saturday 25 Oct 2014 (Local Time) from KPHL Reporting Station
Few Clouds Few Clouds  
Wind Chill: 52°   Ceiling: Unl
Heat Index: 52°   Visibility: 10mi
Dew Point: 37°   Wind: 3mph
Humidity: 57%   Direction: 210°SSW
Pressure: 29.91"   Gusts: NA
Location:  39.757°N, 75.3338°W
Report Text: KPHL 250654Z 21003KT 10SM FEW250 11/03 A2991 RMK AO2 SLP127 T01110028
Loading
Personal Weather Stations






























Interactive Weather Map
Tropical Storm Tracking
New forecast layout! Learn more

10-Day Weather Forecast

Advertisements
Track Severe Weather on mobile